createdAt,value
2023-01-27T09:46:17.002Z,34.60
2023-01-27T09:49:50.896Z,31.83
2023-01-27T09:53:12.514Z,34.65
2023-01-27T09:56:39.445Z,31.08
2023-01-27T09:59:57.118Z,25.95
2023-01-27T10:03:05.921Z,25.27
2023-01-27T10:06:19.988Z,30.90
2023-01-27T10:09:39.087Z,28.73
2023-01-27T10:13:12.955Z,27.48
2023-01-27T10:16:21.739Z,26.38
2023-01-27T10:20:06.050Z,24.00
2023-01-27T10:23:30.882Z,27.95
2023-01-27T10:26:54.957Z,26.40
2023-01-27T10:29:38.080Z,26.77
2023-01-27T10:32:37.689Z,24.60
2023-01-27T10:35:20.951Z,25.92
2023-01-27T10:38:42.600Z,25.95
2023-01-27T10:41:41.727Z,22.48
2023-01-27T10:44:46.581Z,26.45
2023-01-27T10:48:14.908Z,22.00
2023-01-27T10:51:17.850Z,28.70
2023-01-27T10:54:07.575Z,23.92
2023-01-27T10:57:04.463Z,25.73
2023-01-27T11:00:21.870Z,21.20
2023-01-27T11:03:09.863Z,28.42
2023-01-27T11:05:58.065Z,24.45
2023-01-27T11:08:44.961Z,22.20
2023-01-27T11:11:33.463Z,21.27
2023-01-27T11:14:39.346Z,23.98
2023-01-27T11:17:42.512Z,25.60
2023-01-27T11:20:35.444Z,20.70
2023-01-27T11:23:45.655Z,22.92
2023-01-27T11:26:43.540Z,20.50
2023-01-27T11:29:49.911Z,22.98
2023-01-27T11:32:51.260Z,21.65
2023-01-27T11:35:18.686Z,22.60
2023-01-27T11:37:51.265Z,22.35
2023-01-27T11:40:33.634Z,19.80
2023-01-27T11:43:02.217Z,20.63
2023-01-27T11:45:36.624Z,22.85
2023-01-27T11:48:12.537Z,19.17
2023-01-27T11:50:43.978Z,18.70
2023-01-27T11:53:29.801Z,21.65
2023-01-27T11:56:07.622Z,21.05
2023-01-27T11:59:18.331Z,18.58
2023-01-27T12:05:14.579Z,19.52
2023-01-27T12:08:04.691Z,20.25
2023-01-27T12:10:44.266Z,22.30
2023-01-27T12:13:21.143Z,21.27
2023-01-27T12:16:00.591Z,19.30
2023-01-27T12:18:32.277Z,17.02
2023-01-27T12:21:06.591Z,20.48
2023-01-27T12:23:46.858Z,18.15
2023-01-27T12:26:14.512Z,19.70
2023-01-27T12:28:54.548Z,22.88
2023-01-27T12:31:42.200Z,18.02
2023-01-27T12:34:36.650Z,19.70
2023-01-27T12:37:07.859Z,19.50
2023-01-27T12:40:00.483Z,20.58
2023-01-27T12:42:44.286Z,16.98
2023-01-27T12:45:35.520Z,21.48
2023-01-27T12:48:20.766Z,18.42
2023-01-27T12:50:51.013Z,16.88
2023-01-27T12:53:27.728Z,17.15
2023-01-27T12:56:20.916Z,18.40
2023-01-27T12:58:59.728Z,16.70
2023-01-27T13:01:38.416Z,17.55
2023-01-27T13:04:25.215Z,16.65
2023-01-27T13:07:03.014Z,15.68
2023-01-27T13:10:03.511Z,20.40
2023-01-27T13:15:31.582Z,15.50
2023-01-27T13:18:12.075Z,13.90
2023-01-27T13:20:49.566Z,15.63
2023-01-27T13:23:34.819Z,15.70
2023-01-27T13:26:05.015Z,18.75
2023-01-27T13:28:55.885Z,18.73
2023-01-27T13:32:16.078Z,14.98
2023-01-27T13:35:25.955Z,17.40
2023-01-27T13:38:44.216Z,15.13
2023-01-27T13:41:27.163Z,14.73
2023-01-27T13:44:42.451Z,15.10
2023-01-27T13:47:27.998Z,14.57
2023-01-27T13:50:16.962Z,13.23
2023-01-27T13:52:50.159Z,16.10
2023-01-27T13:56:19.171Z,15.60
2023-01-27T13:59:40.930Z,13.63
2023-01-27T14:03:05.124Z,15.60
2023-01-27T14:06:24.560Z,13.25
2023-01-27T14:10:08.687Z,11.93
2023-01-27T14:13:23.872Z,14.60
2023-01-27T14:16:25.949Z,15.55
2023-01-27T14:19:41.394Z,17.00
2023-01-27T14:23:19.969Z,12.07
2023-01-27T14:27:09.856Z,13.90
2023-01-27T14:30:13.482Z,17.08
2023-01-27T14:32:55.377Z,14.43
2023-01-27T14:36:11.516Z,15.00
2023-01-27T14:39:14.346Z,12.00
2023-01-27T14:45:28.817Z,12.38
2023-01-27T14:48:36.760Z,12.88
2023-01-27T14:51:43.826Z,15.13
2023-01-27T14:55:31.907Z,13.45
2023-01-27T14:58:44.662Z,12.80
2023-01-27T15:01:32.141Z,11.13
2023-01-27T15:05:02.971Z,10.05
2023-01-27T15:11:31.696Z,11.38
2023-01-27T15:14:45.252Z,12.38
2023-01-27T15:17:46.610Z,11.35
2023-01-27T15:20:52.006Z,10.35
2023-01-27T15:24:18.556Z,8.80
2023-01-27T15:26:47.965Z,9.30
2023-01-27T15:29:17.336Z,9.07
2023-01-27T15:32:28.463Z,9.60
2023-01-27T15:35:37.916Z,10.30
2023-01-27T15:38:35.139Z,10.07
2023-01-27T15:41:12.147Z,10.40
2023-01-27T15:44:02.240Z,9.63
2023-01-27T15:46:37.316Z,10.68
2023-01-27T15:49:12.853Z,10.13
2023-01-27T15:51:40.365Z,8.52
2023-01-27T15:54:27.450Z,9.15
2023-01-27T15:56:58.172Z,10.20
2023-01-27T15:59:58.736Z,8.70
2023-01-27T16:02:32.378Z,9.10
2023-01-27T16:05:36.564Z,8.65
2023-01-27T16:08:13.825Z,8.07
2023-01-27T16:10:42.232Z,11.75
2023-01-27T16:13:29.793Z,10.27
2023-01-27T16:16:18.870Z,10.10
2023-01-27T16:19:29.240Z,10.55
2023-01-27T16:22:14.933Z,11.25
2023-01-27T16:25:27.014Z,12.10
2023-01-27T16:28:12.966Z,11.65
2023-01-27T16:30:56.773Z,13.13
2023-01-27T16:33:51.708Z,12.50
2023-01-27T16:36:36.157Z,10.32
2023-01-27T16:39:43.619Z,13.90
2023-01-27T16:42:16.905Z,12.32
2023-01-27T16:44:51.128Z,12.57
2023-01-27T16:47:45.522Z,15.30
2023-01-27T16:50:42.600Z,13.68
2023-01-27T16:53:25.345Z,14.27
2023-01-27T16:56:15.271Z,14.10
2023-01-27T16:58:46.725Z,16.27
2023-01-27T17:01:39.723Z,14.25
2023-01-27T17:04:19.869Z,13.35
2023-01-27T17:06:51.800Z,15.82
2023-01-27T17:09:35.091Z,16.08
2023-01-27T17:12:02.641Z,17.60
2023-01-27T17:14:45.988Z,15.07
2023-01-27T17:17:21.099Z,13.15
2023-01-27T17:19:52.806Z,13.98
2023-01-27T17:22:38.021Z,14.10
2023-01-27T17:25:37.608Z,14.70
2023-01-27T17:28:22.114Z,15.75
2023-01-27T17:30:50.670Z,16.70
2023-01-27T17:33:21.465Z,16.38
2023-01-27T17:36:10.060Z,18.00
2023-01-27T17:38:51.823Z,15.77
2023-01-27T17:41:37.937Z,15.55
2023-01-27T17:44:14.721Z,14.90
2023-01-27T17:46:42.391Z,17.88
2023-01-27T17:49:18.793Z,17.33
2023-01-27T17:51:55.755Z,16.10
2023-01-27T17:54:39.272Z,17.48
2023-01-27T17:57:32.670Z,17.35
